| time (UTC) | temp C | wind direction | speed KPH | gust KPH | rain 1hr cm | rain 24hr cm | rain mn cm | humidity % | barometer mb |
| 20260510071510 | 25 | 133 | 8.0 | 9.7 | 0.00 | 0.00 | 0.00 | 74 | 1010.2 |
| 20260510071009 | 25 | 161 | 8.0 | 12.9 | 0.00 | 0.00 | 0.00 | 74 | 1010.2 |
| 20260510070505 | 25 | 163 | 11.3 | 14.5 | 0.00 | 0.00 | 0.00 | 73 | 1010.2 |
| 20260510070002 | 25 | 161 | 6.4 | 9.7 | 0.00 | 0.00 | 0.00 | 72 | 1010.6 |
| 20260510065458 | 25 | 154 | 6.4 | 9.7 | 0.00 | 0.00 | 0.00 | 72 | 1010.2 |
| 20260510064954 | 25 | 154 | 1.6 | 1.6 | 0.00 | 0.00 | 0.00 | 72 | 1010.2 |
| 20260510064451 | 25 | 157 | 3.2 | 3.2 | 0.00 | 0.00 | 0.00 | 72 | 1010.6 |
| 20260510063948 | 25 | 155 | 4.8 | 4.8 | 0.00 | 0.00 | 0.00 | 73 | 1010.2 |
| 20260510063444 | 25 | 154 | 3.2 | 3.2 | 0.00 | 0.00 | 0.00 | 73 | 1010.6 |
| 20260510062942 | 25 | 171 | 4.8 | 8.0 | 0.00 | 0.00 | 0.00 | 72 | 1010.6 |
| 20260510062437 | 25 | 151 | 9.7 | 12.9 | 0.00 | 0.00 | 0.00 | 72 | 1010.2 |
| 20260510061932 | 25 | 166 | 4.8 | 8.0 | 0.00 | 0.00 | 0.00 | 73 | 1010.2 |
| 20260510061429 | 25 | 170 | 4.8 | 8.0 | 0.00 | 0.00 | 0.00 | 72 | 1010.6 |
| 20260510060925 | 25 | 175 | 6.4 | 8.0 | 0.00 | 0.00 | 0.00 | 73 | 1010.2 |
| 20260510060423 | 25 | 157 | 9.7 | 11.3 | 0.00 | 0.00 | 0.00 | 72 | 1010.2 |
| 20260510055918 | 25 | 151 | 4.8 | 4.8 | 0.00 | 0.00 | 0.00 | 74 | 1010.2 |
| 20260510055414 | 23 | 156 | 4.8 | 8.0 | 0.00 | 0.00 | 0.00 | 74 | 1010.2 |
| 20260510054907 | 22 | 137 | 0.0 | 1.6 | 0.00 | 0.00 | 0.00 | 74 | 1010.2 |
| 20260510054402 | 22 | 132 | 0.0 | 0.0 | 0.00 | 0.00 | 0.00 | 73 | 1010.2 |
| 20260510053857 | 23 | 162 | 0.0 | 0.0 | 0.00 | 0.00 | 0.00 | 71 | 1010.2 |
| 20260510053353 | 23 | 143 | 0.0 | 0.0 | 0.00 | 0.00 | 0.00 | 69 | 1010.2 |
| 20260510052850 | 23 | 147 | 1.6 | 3.2 | 0.00 | 0.00 | 0.00 | 69 | 1010.2 |
| 20260510052345 | 24 | 137 | 0.0 | 1.6 | 0.00 | 0.00 | 0.00 | 68 | 1010.2 |
| 20260510051842 | 24 | 138 | 3.2 | 4.8 | 0.00 | 0.00 | 0.00 | 67 | 1009.9 |
| 20260510051339 | 24 | 135 | 6.4 | 11.3 | 0.00 | 0.00 | 0.00 | 67 | 1009.9 |
| 20260510050836 | 24 | 136 | 6.4 | 8.0 | 0.00 | 0.00 | 0.00 | 66 | 1009.9 |
| 20260510050332 | 24 | 169 | 3.2 | 4.8 | 0.00 | 0.00 | 0.00 | 65 | 1010.2 |
| 20260510045829 | 24 | 134 | 4.8 | 4.8 | 0.00 | 0.00 | 0.00 | 65 | 1009.9 |
| 20260510045326 | 24 | 150 | 4.8 | 8.0 | 0.00 | 0.00 | 0.00 | 64 | 1009.9 |
| 20260510044823 | 25 | 130 | 4.8 | 8.0 | 0.00 | 0.00 | 0.00 | 64 | 1009.6 |
| 20260510044320 | 25 | 138 | 8.0 | 11.3 | 0.00 | 0.00 | 0.00 | 62 | 1009.9 |
| 20260510043816 | 25 | 171 | 9.7 | 11.3 | 0.00 | 0.00 | 0.00 | 62 | 1009.9 |
| 20260510043312 | 25 | 154 | 14.5 | 16.1 | 0.00 | 0.00 | 0.00 | 62 | 1009.9 |
| 20260510042810 | 25 | 155 | 9.7 | 12.9 | 0.00 | 0.00 | 0.00 | 61 | 1009.9 |
| 20260510042307 | 25 | 136 | 4.8 | 8.0 | 0.00 | 0.00 | 0.00 | 61 | 1009.9 |
| 20260510041802 | 25 | 142 | 12.9 | 14.5 | 0.00 | 0.00 | 0.00 | 61 | 1009.9 |
| 20260510041300 | 25 | 135 | 6.4 | 11.3 | 0.00 | 0.00 | 0.00 | 61 | 1010.2 |
| 20260510040757 | 25 | 124 | 4.8 | 8.0 | 0.00 | 0.00 | 0.00 | 62 | 1009.9 |
| 20260510040254 | 25 | 160 | 6.4 | 9.7 | 0.00 | 0.00 | 0.00 | 63 | 1010.2 |
| 20260510035749 | 25 | 150 | 4.8 | 4.8 | 0.00 | 0.00 | 0.00 | 63 | 1010.6 |
| 20260510035245 | 25 | 155 | 6.4 | 8.0 | 0.00 | 0.00 | 0.00 | 63 | 1010.2 |
| 20260510034741 | 25 | 143 | 8.0 | 11.3 | 0.00 | 0.00 | 0.00 | 63 | 1010.2 |
| 20260510034239 | 25 | 147 | 4.8 | 8.0 | 0.00 | 0.00 | 0.00 | 64 | 1010.6 |
| 20260510033735 | 25 | 166 | 6.4 | 8.0 | 0.00 | 0.00 | 0.00 | 64 | 1010.2 |
| 20260510033233 | 25 | 150 | 6.4 | 8.0 | 0.00 | 0.00 | 0.00 | 64 | 1010.2 |
| 20260510032729 | 24 | 151 | 4.8 | 8.0 | 0.00 | 0.00 | 0.00 | 65 | 1010.2 |
| 20260510032225 | 24 | 136 | 4.8 | 4.8 | 0.00 | 0.00 | 0.00 | 66 | 1010.2 |
| 20260510031720 | 23 | 139 | 4.8 | 4.8 | 0.00 | 0.00 | 0.00 | 67 | 1010.2 |
| 20260510031216 | 23 | 148 | 6.4 | 8.0 | 0.00 | 0.00 | 0.00 | 69 | 1010.2 |
| 20260510030715 | 23 | 143 | 1.6 | 1.6 | 0.00 | 0.00 | 0.00 | 69 | 1010.2 |
| 20260510030213 | 23 | 138 | 0.0 | 0.0 | 0.00 | 0.00 | 0.00 | 70 | 1010.2 |
| 20260510025711 | 23 | 136 | 0.0 | 0.0 | 0.00 | 0.00 | 0.00 | 69 | 1010.2 |
| 20260510025208 | 24 | 135 | 0.0 | 0.0 | 0.00 | 0.00 | 0.00 | 67 | 1010.6 |
| 20260510024705 | 25 | 135 | 0.0 | 0.0 | 0.00 | 0.00 | 0.00 | 66 | 1010.2 |
| 20260510024201 | 25 | 140 | 1.6 | 1.6 | 0.00 | 0.00 | 0.00 | 65 | 1010.2 |
| 20260510023657 | 25 | 137 | 1.6 | 1.6 | 0.00 | 0.00 | 0.00 | 64 | 1010.6 |
| 20260510023154 | 25 | 137 | 1.6 | 1.6 | 0.00 | 0.00 | 0.00 | 64 | 1009.9 |
| 20260510022649 | 25 | 147 | 3.2 | 3.2 | 0.00 | 0.00 | 0.00 | 63 | 1009.9 |
| 20260510022144 | 26 | 144 | 3.2 | 3.2 | 0.00 | 0.00 | 0.00 | 63 | 1009.9 |
| 20260510021640 | 25 | 147 | 1.6 | 3.2 | 0.00 | 0.00 | 0.00 | 62 | 1009.6 |
| 20260510021137 | 25 | 141 | 3.2 | 3.2 | 0.00 | 0.00 | 0.00 | 63 | 1009.6 |
| 20260510020632 | 25 | 149 | 3.2 | 3.2 | 0.00 | 0.00 | 0.00 | 63 | 1009.6 |
| 20260510020127 | 26 | 138 | 3.2 | 3.2 | 0.00 | 0.00 | 0.00 | 62 | 1009.6 |
| 20260510015624 | 26 | 147 | 3.2 | 4.8 | 0.00 | 0.00 | 0.00 | 61 | 1009.6 |
| 20260510015120 | 26 | 145 | 4.8 | 8.0 | 0.00 | 0.00 | 0.00 | 60 | 1009.6 |
| 20260510014616 | 26 | 140 | 3.2 | 3.2 | 0.00 | 0.00 | 0.00 | 59 | 1009.6 |
| 20260510014113 | 26 | 151 | 3.2 | 4.8 | 0.00 | 0.00 | 0.00 | 59 | 1009.6 |
| 20260510013608 | 27 | 147 | 3.2 | 3.2 | 0.00 | 0.00 | 0.00 | 58 | 1009.2 |
| 20260510013103 | 27 | 140 | 1.6 | 1.6 | 0.00 | 0.00 | 0.00 | 57 | 1009.6 |
| 20260510012557 | 27 | 139 | 1.6 | 1.6 | 0.00 | 0.00 | 0.00 | 56 | 1009.2 |
| 20260510012054 | 27 | 145 | 3.2 | 3.2 | 0.00 | 0.00 | 0.00 | 56 | 1009.6 |
| 20260510011554 | 27 | 141 | 1.6 | 3.2 | 0.00 | 0.00 | 0.00 | 56 | 1009.2 |
| 20260510011050 | 28 | 141 | 1.6 | 1.6 | 0.00 | 0.00 | 0.00 | 55 | 1009.2 |
| 20260510010547 | 28 | 138 | 1.6 | 1.6 | 0.00 | 0.00 | 0.00 | 55 | 1008.9 |
| 20260510010044 | 28 | 138 | 1.6 | 1.6 | 0.00 | 0.00 | 0.00 | 53 | 1009.2 |
| 20260510005539 | 29 | 144 | 3.2 | 3.2 | 0.00 | 0.00 | 0.00 | 52 | 1008.9 |
| 20260510005037 | 29 | 146 | 4.8 | 4.8 | 0.00 | 0.00 | 0.00 | 52 | 1009.2 |
| 20260510004535 | 30 | 150 | 4.8 | 4.8 | 0.00 | 0.00 | 0.00 | 51 | 1008.9 |
| 20260510004032 | 30 | 154 | 4.8 | 8.0 | 0.00 | 0.00 | 0.00 | 50 | 1008.9 |
| 20260510003529 | 30 | 139 | 4.8 | 4.8 | 0.00 | 0.00 | 0.00 | 51 | 1008.9 |
| 20260510003024 | 30 | 155 | 4.8 | 4.8 | 0.00 | 0.00 | 0.00 | 50 | 1008.9 |
| 20260510002520 | 30 | 132 | 4.8 | 4.8 | 0.00 | 0.00 | 0.00 | 50 | 1008.9 |
| 20260510002017 | 30 | 142 | 3.2 | 3.2 | 0.00 | 0.00 | 0.00 | 50 | 1008.9 |
| 20260510001515 | 30 | 145 | 6.4 | 8.0 | 0.00 | 0.00 | 0.00 | 49 | 1009.2 |
| 20260510001012 | 31 | 143 | 9.7 | 11.3 | 0.00 | 0.00 | 0.00 | 49 | 1009.2 |
| 20260510000507 | 31 | 154 | 6.4 | 9.7 | 0.00 | 0.00 | 0.00 | 49 | 1009.2 |
| 20260510000004 | 31 | 141 | 12.9 | 16.1 | 0.00 | 0.00 | 0.00 | 48 | 1009.2 |
| 20260509235501 | 31 | 149 | 6.4 | 9.7 | 0.00 | 0.00 | 0.00 | 49 | 1009.2 |
| 20260509234957 | 31 | 169 | 8.0 | 9.7 | 0.00 | 0.00 | 0.00 | 49 | 1009.2 |
| 20260509234454 | 31 | 134 | 3.2 | 4.8 | 0.00 | 0.00 | 0.00 | 50 | 1008.9 |
| 20260509233952 | 31 | 131 | 8.0 | 9.7 | 0.00 | 0.00 | 0.00 | 48 | 1008.9 |
| 20260509233449 | 32 | 158 | 6.4 | 8.0 | 0.00 | 0.00 | 0.00 | 47 | 1009.2 |
| 20260509232945 | 32 | 129 | 4.8 | 8.0 | 0.00 | 0.00 | 0.00 | 47 | 1009.2 |
| 20260509232443 | 32 | 148 | 9.7 | 12.9 | 0.00 | 0.00 | 0.00 | 46 | 1008.9 |
| 20260509231938 | 32 | 132 | 9.7 | 11.3 | 0.00 | 0.00 | 0.00 | 45 | 1009.2 |
| 20260509231435 | 32 | 133 | 11.3 | 14.5 | 0.00 | 0.00 | 0.00 | 46 | 1008.9 |
| 20260509230934 | 32 | 144 | 6.4 | 8.0 | 0.00 | 0.00 | 0.00 | 46 | 1009.2 |
| 20260509230430 | 32 | 150 | 9.7 | 11.3 | 0.00 | 0.00 | 0.00 | 45 | 1008.9 |
| 20260509225926 | 32 | 163 | 11.3 | 12.9 | 0.00 | 0.00 | 0.00 | 45 | 1008.9 |
| 20260509225422 | 32 | 155 | 9.7 | 11.3 | 0.00 | 0.00 | 0.00 | 45 | 1008.9 |
| 20260509224919 | 32 | 162 | 4.8 | 8.0 | 0.00 | 0.00 | 0.00 | 46 | 1008.9 |
| 20260509224414 | 32 | 169 | 3.2 | 9.7 | 0.00 | 0.00 | 0.00 | 45 | 1009.2 |
| 20260509223912 | 32 | 154 | 6.4 | 9.7 | 0.00 | 0.00 | 0.00 | 45 | 1008.9 |
| 20260509223408 | 32 | 154 | 6.4 | 8.0 | 0.00 | 0.00 | 0.00 | 44 | 1009.2 |
| 20260509222905 | 32 | 150 | 4.8 | 8.0 | 0.00 | 0.00 | 0.00 | 43 | 1009.2 |
| 20260509222401 | 32 | 143 | 4.8 | 4.8 | 0.00 | 0.00 | 0.00 | 44 | 1009.2 |
| 20260509221856 | 32 | 157 | 8.0 | 9.7 | 0.00 | 0.00 | 0.00 | 46 | 1008.9 |
| 20260509221354 | 32 | 164 | 11.3 | 12.9 | 0.00 | 0.00 | 0.00 | 42 | 1009.2 |
| 20260509220849 | 32 | 142 | 8.0 | 9.7 | 0.00 | 0.00 | 0.00 | 45 | 1008.9 |
| 20260509220345 | 32 | 134 | 4.8 | 4.8 | 0.00 | 0.00 | 0.00 | 45 | 1008.9 |
| 20260509215841 | 32 | 140 | 0.0 | 0.0 | 0.00 | 0.00 | 0.00 | 45 | 1008.9 |
| 20260509215338 | 32 | 155 | 8.0 | 11.3 | 0.00 | 0.00 | 0.00 | 47 | 1009.6 |
| 20260509214835 | 31 | 155 | 9.7 | 11.3 | 0.00 | 0.00 | 0.00 | 47 | 1008.9 |
| 20260509214332 | 32 | 159 | 11.3 | 12.9 | 0.00 | 0.00 | 0.00 | 48 | 1009.2 |
| 20260509213829 | 32 | 134 | 11.3 | 14.5 | 0.00 | 0.00 | 0.00 | 49 | 1009.2 |
| 20260509213324 | 33 | 132 | 8.0 | 9.7 | 0.00 | 0.00 | 0.00 | 46 | 1009.6 |
| 20260509212822 | 33 | 144 | 4.8 | 4.8 | 0.00 | 0.00 | 0.00 | 46 | 1009.6 |
| 20260509212320 | 32 | 127 | 4.8 | 8.0 | 0.00 | 0.00 | 0.00 | 47 | 1009.6 |
| 20260509211815 | 31 | 134 | 8.0 | 11.3 | 0.00 | 0.00 | 0.00 | 48 | 1009.6 |
| 20260509211311 | 32 | 139 | 9.7 | 11.3 | 0.00 | 0.00 | 0.00 | 48 | 1009.9 |
| 20260509210808 | 32 | 163 | 6.4 | 9.7 | 0.00 | 0.00 | 0.00 | 48 | 1009.9 |
| 20260509210306 | 32 | 107 | 14.5 | 17.7 | 0.00 | 0.00 | 0.00 | 48 | 1009.9 |
| 20260509205805 | 33 | 130 | 9.7 | 11.3 | 0.00 | 0.00 | 0.00 | 46 | 1009.9 |
| 20260509205300 | 32 | 117 | 1.6 | 1.6 | 0.00 | 0.00 | 0.00 | 48 | 1009.9 |
| 20260509204756 | 32 | 116 | 1.6 | 1.6 | 0.00 | 0.00 | 0.00 | 47 | 1010.2 |
| 20260509204252 | 32 | 109 | 1.6 | 4.8 | 0.00 | 0.00 | 0.00 | 47 | 1010.2 |
| 20260509203748 | 32 | 138 | 11.3 | 14.5 | 0.00 | 0.00 | 0.00 | 49 | 1010.2 |
| 20260509203247 | 33 | 129 | 6.4 | 8.0 | 0.00 | 0.00 | 0.00 | 46 | 1010.6 |
| 20260509202743 | 33 | 133 | 3.2 | 3.2 | 0.00 | 0.00 | 0.00 | 44 | 1010.6 |
| 20260509202239 | 33 | 129 | 4.8 | 8.0 | 0.00 | 0.00 | 0.00 | 45 | 1010.6 |
| 20260509201739 | 32 | 132 | 0.0 | 1.6 | 0.00 | 0.00 | 0.00 | 45 | 1010.6 |
| 20260509201236 | 32 | 136 | 0.0 | 1.6 | 0.00 | 0.00 | 0.00 | 46 | 1010.6 |
| 20260509200732 | 32 | 129 | 0.0 | 1.6 | 0.00 | 0.00 | 0.00 | 46 | 1010.6 |
| 20260509200227 | 31 | 135 | 0.0 | 1.6 | 0.00 | 0.00 | 0.00 | 46 | 1011.0 |
| 20260509195724 | 31 | 103 | 6.4 | 9.7 | 0.00 | 0.00 | 0.00 | 46 | 1011.0 |
| 20260509195218 | 31 | 138 | 4.8 | 11.3 | 0.00 | 0.00 | 0.00 | 49 | 1011.0 |
| 20260509194713 | 32 | 180 | 3.2 | 3.2 | 0.00 | 0.00 | 0.00 | 48 | 1011.0 |
| 20260509194210 | 33 | 127 | 4.8 | 8.0 | 0.00 | 0.00 | 0.00 | 45 | 1011.0 |
| 20260509193707 | 33 | 154 | 1.6 | 1.6 | 0.00 | 0.00 | 0.00 | 44 | 1011.0 |
| 20260509193206 | 32 | 133 | 0.0 | 1.6 | 0.00 | 0.00 | 0.00 | 46 | 1011.4 |
| 20260509192703 | 33 | 118 | 3.2 | 4.8 | 0.00 | 0.00 | 0.00 | 44 | 1011.4 |
| 20260509192158 | 33 | 141 | 0.0 | 1.6 | 0.00 | 0.00 | 0.00 | 48 | 1011.4 |
| 20260509191654 | 32 | 152 | 1.6 | 1.6 | 0.00 | 0.00 | 0.00 | 45 | 1011.4 |
| 20260509191150 | 32 | 142 | 4.8 | 4.8 | 0.00 | 0.00 | 0.00 | 47 | 1011.4 |
| 20260509190646 | 31 | 127 | 1.6 | 1.6 | 0.00 | 0.00 | 0.00 | 48 | 1011.7 |
| 20260509190144 | 30 | 116 | 4.8 | 4.8 | 0.00 | 0.00 | 0.00 | 50 | 1011.7 |
| 20260509185642 | 30 | 158 | 6.4 | 8.0 | 0.00 | 0.00 | 0.00 | 51 | 1011.7 |
| 20260509185137 | 30 | 133 | 6.4 | 8.0 | 0.00 | 0.00 | 0.00 | 49 | 1011.7 |
| 20260509184635 | 31 | 208 | 3.2 | 3.2 | 0.00 | 0.00 | 0.00 | 50 | 1011.7 |
| 20260509184132 | 31 | 105 | 3.2 | 3.2 | 0.00 | 0.00 | 0.00 | 48 | 1011.7 |
| 20260509183628 | 30 | 126 | 0.0 | 1.6 | 0.00 | 0.00 | 0.00 | 50 | 1012.0 |
| 20260509183124 | 30 | 150 | 3.2 | 3.2 | 0.00 | 0.00 | 0.00 | 52 | 1012.4 |
| 20260509182620 | 29 | 127 | 3.2 | 4.8 | 0.00 | 0.00 | 0.00 | 55 | 1012.0 |
| 20260509182117 | 28 | 125 | 3.2 | 8.0 | 0.00 | 0.00 | 0.00 | 56 | 1012.4 |
| 20260509181615 | 29 | 192 | 3.2 | 4.8 | 0.00 | 0.00 | 0.00 | 57 | 1012.4 |
| 20260509181112 | 30 | 159 | 1.6 | 1.6 | 0.00 | 0.00 | 0.00 | 61 | 1012.4 |
| 20260509180608 | 29 | 156 | 4.8 | 4.8 | 0.00 | 0.00 | 0.00 | 59 | 1012.4 |
| 20260509180105 | 30 | 142 | 3.2 | 3.2 | 0.00 | 0.00 | 0.00 | 56 | 1012.4 |
| 20260509175601 | 30 | 130 | 1.6 | 3.2 | 0.00 | 0.00 | 0.00 | 58 | 1012.4 |
| 20260509175058 | 30 | 157 | 4.8 | 4.8 | 0.00 | 0.00 | 0.00 | 59 | 1012.7 |
| 20260509174554 | 29 | 132 | 3.2 | 4.8 | 0.00 | 0.00 | 0.00 | 59 | 1012.7 |
| 20260509174049 | 28 | 120 | 6.4 | 8.0 | 0.00 | 0.00 | 0.00 | 60 | 1012.7 |
| 20260509173544 | 28 | 131 | 1.6 | 1.6 | 0.00 | 0.00 | 0.00 | 60 | 1012.7 |
| 20260509173041 | 28 | 125 | 3.2 | 4.8 | 0.00 | 0.00 | 0.00 | 60 | 1012.7 |
| 20260509172538 | 28 | 137 | 3.2 | 3.2 | 0.00 | 0.00 | 0.00 | 63 | 1013.1 |
| 20260509172033 | 28 | 143 | 1.6 | 1.6 | 0.00 | 0.00 | 0.00 | 63 | 1012.7 |
| 20260509171529 | 27 | 167 | 3.2 | 3.2 | 0.00 | 0.00 | 0.00 | 61 | 1013.4 |
| 20260509171026 | 28 | 158 | 4.8 | 4.8 | 0.00 | 0.00 | 0.00 | 64 | 1013.4 |
| 20260509170522 | 27 | 154 | 1.6 | 3.2 | 0.00 | 0.00 | 0.00 | 64 | 1013.1 |
| 20260509170018 | 27 | 132 | 3.2 | 3.2 | 0.00 | 0.00 | 0.00 | 63 | 1013.4 |
| 20260509165516 | 26 | 126 | 0.0 | 0.0 | 0.00 | 0.00 | 0.00 | 65 | 1013.4 |
| 20260509165012 | 26 | 263 | 4.8 | 4.8 | 0.00 | 0.00 | 0.00 | 65 | 1013.4 |
| 20260509164509 | 27 | 134 | 0.0 | 0.0 | 0.00 | 0.00 | 0.00 | 63 | 1013.7 |
| 20260509164004 | 26 | 138 | 0.0 | 1.6 | 0.00 | 0.00 | 0.00 | 66 | 1013.4 |
| 20260509163502 | 25 | 133 | 0.0 | 0.0 | 0.00 | 0.00 | 0.00 | 68 | 1013.4 |
| 20260509163002 | 25 | 145 | 6.4 | 9.7 | 0.00 | 0.00 | 0.00 | 67 | 1013.4 |
| 20260509162500 | 25 | 150 | 1.6 | 1.6 | 0.00 | 0.00 | 0.00 | 67 | 1013.7 |
| 20260509161956 | 26 | 147 | 1.6 | 1.6 | 0.00 | 0.00 | 0.00 | 66 | 1013.4 |
| 20260509161452 | 26 | 137 | 1.6 | 1.6 | 0.00 | 0.00 | 0.00 | 67 | 1013.4 |
| 20260509160947 | 26 | 147 | 1.6 | 3.2 | 0.00 | 0.00 | 0.00 | 67 | 1013.7 |
| 20260509160444 | 27 | 138 | 1.6 | 1.6 | 0.00 | 0.00 | 0.00 | 63 | 1013.7 |
| 20260509155938 | 26 | 134 | 1.6 | 1.6 | 0.00 | 0.00 | 0.00 | 66 | 1013.7 |
| 20260509155436 | 26 | 144 | 3.2 | 3.2 | 0.00 | 0.00 | 0.00 | 67 | 1013.4 |
| 20260509154932 | 26 | 132 | 0.0 | 1.6 | 0.00 | 0.00 | 0.00 | 66 | 1013.7 |
| 20260509154428 | 25 | 129 | 0.0 | 0.0 | 0.00 | 0.00 | 0.00 | 69 | 1013.7 |
| 20260509153926 | 24 | 114 | 3.2 | 3.2 | 0.00 | 0.00 | 0.00 | 70 | 1013.7 |
| 20260509153422 | 23 | 133 | 1.6 | 1.6 | 0.00 | 0.00 | 0.00 | 70 | 1013.7 |
| 20260509152920 | 25 | 134 | 1.6 | 1.6 | 0.00 | 0.00 | 0.00 | 69 | 1013.4 |
| 20260509152415 | 24 | 138 | 0.0 | 1.6 | 0.00 | 0.00 | 0.00 | 68 | 1013.7 |
| 20260509151912 | 23 | 133 | 0.0 | 0.0 | 0.00 | 0.00 | 0.00 | 72 | 1013.4 |
| 20260509151408 | 23 | 126 | 1.6 | 3.2 | 0.00 | 0.00 | 0.00 | 69 | 1013.7 |
| 20260509150907 | 23 | 120 | 1.6 | 1.6 | 0.00 | 0.00 | 0.00 | 70 | 1013.7 |
| 20260509150404 | 22 | 130 | 1.6 | 1.6 | 0.00 | 0.00 | 0.00 | 72 | 1013.7 |
| 20260509145902 | 22 | 141 | 3.2 | 3.2 | 0.00 | 0.00 | 0.00 | 74 | 1013.7 |
| 20260509145401 | 22 | 141 | 3.2 | 3.2 | 0.00 | 0.00 | 0.00 | 72 | 1013.7 |
| 20260509144858 | 22 | 137 | 0.0 | 0.0 | 0.00 | 0.00 | 0.00 | 76 | 1013.7 |
| 20260509144355 | 22 | 143 | 0.0 | 1.6 | 0.00 | 0.00 | 0.00 | 75 | 1014.1 |
| 20260509143852 | 22 | 135 | 0.0 | 0.0 | 0.00 | 0.00 | 0.00 | 76 | 1014.1 |
| 20260509143349 | 21 | 134 | 0.0 | 0.0 | 0.00 | 0.00 | 0.00 | 78 | 1013.7 |
| 20260509142845 | 21 | 129 | 0.0 | 0.0 | 0.00 | 0.00 | 0.00 | 77 | 1013.7 |
| 20260509142342 | 21 | 133 | 0.0 | 0.0 | 0.00 | 0.00 | 0.00 | 80 | 1013.7 |
| 20260509141837 | 21 | 136 | 0.0 | 0.0 | 0.00 | 0.00 | 0.00 | 80 | 1013.7 |
| 20260509141335 | 21 | 131 | 0.0 | 1.6 | 0.00 | 0.00 | 0.00 | 79 | 1013.7 |
| 20260509140831 | 20 | 131 | 0.0 | 0.0 | 0.00 | 0.00 | 0.00 | 81 | 1014.1 |
| 20260509140328 | 20 | 126 | 3.2 | 3.2 | 0.00 | 0.00 | 0.00 | 82 | 1014.1 |
| 20260509135827 | 20 | 129 | 0.0 | 1.6 | 0.00 | 0.00 | 0.00 | 82 | 1014.1 |
| 20260509135323 | 20 | 118 | 1.6 | 1.6 | 0.00 | 0.00 | 0.00 | 83 | 1013.7 |
| 20260509134821 | 18 | 131 | 1.6 | 1.6 | 0.00 | 0.00 | 0.00 | 85 | 1014.1 |
| 20260509134318 | 18 | 122 | 1.6 | 1.6 | 0.00 | 0.00 | 0.00 | 86 | 1014.1 |
| 20260509133815 | 18 | 130 | 0.0 | 0.0 | 0.00 | 0.00 | 0.00 | 87 | 1014.1 |
| 20260509133311 | 18 | 119 | 0.0 | 0.0 | 0.00 | 0.00 | 0.00 | 88 | 1013.7 |
| 20260509132810 | 18 | 136 | 0.0 | 0.0 | 0.00 | 0.00 | 0.00 | 89 | 1014.1 |
| 20260509132308 | 18 | 89 | 1.6 | 1.6 | 0.00 | 0.00 | 0.00 | 90 | 1013.7 |
| 20260509131804 | 17 | 108 | 4.8 | 4.8 | 0.00 | 0.00 | 0.00 | 90 | 1014.1 |
| 20260509131301 | 17 | 122 | 1.6 | 1.6 | 0.00 | 0.00 | 0.00 | 92 | 1013.7 |
| 20260509130757 | 17 | 127 | 1.6 | 1.6 | 0.00 | 0.00 | 0.00 | 93 | 1013.7 |
| 20260509130253 | 16 | 129 | 0.0 | 0.0 | 0.00 | 0.00 | 0.00 | 94 | 1013.7 |
| 20260509125750 | 16 | 127 | 1.6 | 1.6 | 0.00 | 0.00 | 0.00 | 94 | 1014.1 |
| 20260509125247 | 16 | 131 | 0.0 | 0.0 | 0.00 | 0.00 | 0.00 | 94 | 1013.4 |
| 20260509124743 | 16 | 130 | 0.0 | 0.0 | 0.00 | 0.00 | 0.00 | 95 | 1013.4 |
| 20260509124240 | 16 | 130 | 0.0 | 0.0 | 0.00 | 0.00 | 0.00 | 95 | 1013.4 |
| 20260509123738 | 16 | 120 | 1.6 | 1.6 | 0.00 | 0.00 | 0.00 | 95 | 1013.4 |
| 20260509123235 | 16 | 141 | 0.0 | 0.0 | 0.00 | 0.00 | 0.00 | 95 | 1013.4 |
| 20260509122731 | 16 | 142 | 0.0 | 0.0 | 0.00 | 0.00 | 0.00 | 95 | 1013.4 |
| 20260509122228 | 16 | 143 | 0.0 | 0.0 | 0.00 | 0.00 | 0.00 | 95 | 1013.4 |
| 20260509121725 | 16 | 141 | 0.0 | 0.0 | 0.00 | 0.00 | 0.00 | 95 | 1013.4 |
| 20260509121222 | 16 | 141 | 0.0 | 0.0 | 0.00 | 0.00 | 0.00 | 94 | 1013.4 |
| 20260509120720 | 16 | 140 | 0.0 | 0.0 | 0.00 | 0.00 | 0.00 | 94 | 1013.1 |
| 20260509120218 | 15 | 161 | 3.2 | 3.2 | 0.00 | 0.00 | 0.00 | 94 | 1012.7 |
| 20260509115715 | 15 | 136 | 0.0 | 0.0 | 0.00 | 0.00 | 0.00 | 94 | 1012.4 |
| 20260509115212 | 16 | 137 | 0.0 | 0.0 | 0.00 | 0.00 | 0.00 | 94 | 1012.7 |
| 20260509114711 | 16 | 134 | 0.0 | 0.0 | 0.00 | 0.00 | 0.00 | 94 | 1012.4 |
| 20260509114209 | 16 | 135 | 0.0 | 0.0 | 0.00 | 0.00 | 0.00 | 94 | 1012.0 |
| 20260509113707 | 16 | 131 | 0.0 | 0.0 | 0.00 | 0.00 | 0.00 | 93 | 1012.0 |
| 20260509113204 | 16 | 134 | 0.0 | 0.0 | 0.00 | 0.00 | 0.00 | 93 | 1011.7 |
| 20260509112701 | 16 | 140 | 0.0 | 1.6 | 0.00 | 0.00 | 0.00 | 93 | 1011.4 |
| 20260509112158 | 16 | 140 | 0.0 | 1.6 | 0.00 | 0.00 | 0.00 | 93 | 1011.4 |
| 20260509111655 | 16 | 142 | 0.0 | 0.0 | 0.00 | 0.00 | 0.00 | 92 | 1011.0 |
| 20260509111151 | 16 | 137 | 0.0 | 0.0 | 0.00 | 0.00 | 0.00 | 92 | 1011.7 |
| 20260509110649 | 16 | 137 | 0.0 | 0.0 | 0.00 | 0.00 | 0.00 | 91 | 1011.4 |
| 20260509110146 | 16 | 137 | 0.0 | 0.0 | 0.00 | 0.00 | 0.00 | 91 | 1011.4 |
| 20260509105644 | 17 | 137 | 0.0 | 0.0 | 0.00 | 0.00 | 0.00 | 90 | 1011.4 |
| 20260509105141 | 17 | 140 | 0.0 | 0.0 | 0.00 | 0.00 | 0.00 | 90 | 1011.0 |
| 20260509104638 | 17 | 136 | 0.0 | 0.0 | 0.00 | 0.00 | 0.00 | 89 | 1011.4 |
| 20260509104135 | 17 | 136 | 0.0 | 0.0 | 0.00 | 0.00 | 0.00 | 88 | 1011.4 |
| 20260509103633 | 17 | 137 | 0.0 | 0.0 | 0.00 | 0.00 | 0.00 | 88 | 1011.4 |
| 20260509103130 | 17 | 131 | 0.0 | 0.0 | 0.00 | 0.00 | 0.00 | 87 | 1011.4 |
| 20260509102628 | 17 | 125 | 1.6 | 1.6 | 0.00 | 0.00 | 0.00 | 87 | 1011.7 |
| 20260509102125 | 17 | 175 | 3.2 | 3.2 | 0.00 | 0.00 | 0.00 | 87 | 1011.4 |
| 20260509101621 | 17 | 290 | 8.0 | 11.3 | 0.00 | 0.00 | 0.00 | 87 | 1011.7 |
| 20260509101117 | 17 | 303 | 3.2 | 8.0 | 0.00 | 0.00 | 0.00 | 86 | 1011.4 |
| 20260509100615 | 18 | 257 | 4.8 | 8.0 | 0.00 | 0.00 | 0.00 | 85 | 1011.4 |
| 20260509100112 | 18 | 195 | 4.8 | 4.8 | 0.00 | 0.00 | 0.00 | 84 | 1011.7 |
| 20260509095608 | 18 | 240 | 6.4 | 8.0 | 0.00 | 0.00 | 0.00 | 84 | 1011.7 |
| 20260509095106 | 18 | 270 | 8.0 | 11.3 | 0.00 | 0.00 | 0.00 | 84 | 1011.4 |
| 20260509094602 | 18 | 284 | 8.0 | 9.7 | 0.00 | 0.00 | 0.00 | 83 | 1011.4 |
| 20260509094059 | 18 | 256 | 14.5 | 17.7 | 0.00 | 0.00 | 0.00 | 82 | 1011.4 |
| 20260509093558 | 18 | 269 | 4.8 | 4.8 | 0.00 | 0.00 | 0.00 | 81 | 1011.4 |
| 20260509093055 | 18 | 180 | 4.8 | 4.8 | 0.00 | 0.00 | 0.00 | 83 | 1010.6 |
| 20260509092552 | 18 | 164 | 3.2 | 3.2 | 0.00 | 0.00 | 0.00 | 82 | 1010.6 |
| 20260509092051 | 18 | 177 | 6.4 | 8.0 | 0.00 | 0.00 | 0.00 | 81 | 1011.0 |
| 20260509091548 | 18 | 137 | 1.6 | 1.6 | 0.00 | 0.00 | 0.00 | 80 | 1011.0 |
| 20260509091044 | 18 | 141 | 1.6 | 1.6 | 0.00 | 0.00 | 0.00 | 79 | 1010.6 |
| 20260509090542 | 18 | 202 | 6.4 | 8.0 | 0.00 | 0.00 | 0.00 | 78 | 1010.2 |
| 20260509090040 | 18 | 175 | 4.8 | 9.7 | 0.00 | 0.00 | 0.00 | 78 | 1010.6 |
| 20260509085537 | 18 | 131 | 4.8 | 4.8 | 0.00 | 0.00 | 0.00 | 78 | 1010.6 |
| 20260509085032 | 18 | 173 | 8.0 | 9.7 | 0.00 | 0.00 | 0.00 | 79 | 1010.2 |
| 20260509084530 | 18 | 176 | 8.0 | 9.7 | 0.00 | 0.00 | 0.00 | 79 | 1010.6 |
| 20260509084027 | 18 | 143 | 1.6 | 1.6 | 0.00 | 0.00 | 0.00 | 78 | 1011.0 |
| 20260509083524 | 18 | 130 | 0.0 | 0.0 | 0.00 | 0.00 | 0.00 | 77 | 1010.6 |
| 20260509083021 | 18 | 64 | 4.8 | 4.8 | 0.00 | 0.00 | 0.00 | 75 | 1010.2 |
| 20260509082518 | 18 | 150 | 6.4 | 8.0 | 0.00 | 0.00 | 0.00 | 76 | 1010.2 |
| 20260509082015 | 18 | 224 | 11.3 | 12.9 | 0.00 | 0.00 | 0.00 | 78 | 1010.2 |
| 20260509081513 | 18 | 216 | 8.0 | 11.3 | 0.00 | 0.00 | 0.00 | 78 | 1010.6 |
| 20260509081009 | 18 | 154 | 4.8 | 8.0 | 0.00 | 0.00 | 0.00 | 78 | 1010.2 |
| 20260509080507 | 18 | 141 | 6.4 | 8.0 | 0.00 | 0.00 | 0.00 | 79 | 1010.6 |
| 20260509080005 | 18 | 157 | 6.4 | 9.7 | 0.00 | 0.00 | 0.00 | 80 | 1010.6 |
| 20260509075502 | 17 | 121 | 8.0 | 9.7 | 0.00 | 0.00 | 0.00 | 81 | 1011.0 |
| 20260509075000 | 17 | 140 | 4.8 | 4.8 | 0.00 | 0.00 | 0.00 | 81 | 1010.6 |
| 20260509074457 | 17 | 150 | 3.2 | 3.2 | 0.00 | 0.00 | 0.00 | 82 | 1011.0 |
| 20260509073953 | 17 | 128 | 6.4 | 9.7 | 0.00 | 0.00 | 0.00 | 83 | 1011.4 |
| 20260509073449 | 17 | 154 | 9.7 | 11.3 | 0.00 | 0.00 | 0.00 | 83 | 1012.0 |
| 20260509072946 | 18 | 148 | 6.4 | 9.7 | 0.00 | 0.00 | 0.00 | 82 | 1013.1 |
| 20260509072443 | 18 | 146 | 1.6 | 1.6 | 0.00 | 0.00 | 0.00 | 81 | 1013.4 |
| 20260509071940 | 18 | 141 | 0.0 | 0.0 | 0.00 | 0.00 | 0.00 | 80 | 1014.1 |